sensor_id;sensor_type;location;lat;lon;timestamp;P1;durP1;ratioP1;P2;durP2;ratioP2
9964;SDS011;5023;53.554;9.964;2023-05-07T00:01:33;17.20;;;15.40;;
9964;SDS011;5023;53.554;9.964;2023-05-07T00:06:37;15.87;;;14.17;;
9964;SDS011;5023;53.554;9.964;2023-05-07T00:11:39;11.87;;;10.77;;
9964;SDS011;5023;53.554;9.964;2023-05-07T00:16:41;12.90;;;11.60;;
9964;SDS011;5023;53.554;9.964;2023-05-07T00:21:44;13.70;;;11.73;;
9964;SDS011;5023;53.554;9.964;2023-05-07T00:26:46;12.00;;;10.80;;
9964;SDS011;5023;53.554;9.964;2023-05-07T00:31:48;13.70;;;12.17;;
9964;SDS011;5023;53.554;9.964;2023-05-07T00:36:52;12.53;;;11.33;;
9964;SDS011;5023;53.554;9.964;2023-05-07T00:41:54;15.47;;;12.83;;
9964;SDS011;5023;53.554;9.964;2023-05-07T00:46:56;12.43;;;9.97;;
9964;SDS011;5023;53.554;9.964;2023-05-07T00:52:00;11.60;;;9.63;;
9964;SDS011;5023;53.554;9.964;2023-05-07T00:57:02;11.17;;;10.07;;
9964;SDS011;5023;53.554;9.964;2023-05-07T01:02:04;11.43;;;10.23;;
9964;SDS011;5023;53.554;9.964;2023-05-07T01:07:08;19.77;;;17.67;;
9964;SDS011;5023;53.554;9.964;2023-05-07T01:12:10;10.97;;;9.67;;
9964;SDS011;5023;53.554;9.964;2023-05-07T01:17:12;11.97;;;9.93;;
9964;SDS011;5023;53.554;9.964;2023-05-07T01:22:16;12.33;;;10.73;;
9964;SDS011;5023;53.554;9.964;2023-05-07T01:27:27;16.23;;;14.53;;
9964;SDS011;5023;53.554;9.964;2023-05-07T01:32:32;9.37;;;8.57;;
9964;SDS011;5023;53.554;9.964;2023-05-07T01:37:38;9.50;;;8.60;;
9964;SDS011;5023;53.554;9.964;2023-05-07T01:42:41;9.67;;;8.67;;
9964;SDS011;5023;53.554;9.964;2023-05-07T01:47:44;18.57;;;15.70;;
9964;SDS011;5023;53.554;9.964;2023-05-07T01:52:49;9.23;;;8.33;;
9964;SDS011;5023;53.554;9.964;2023-05-07T01:57:51;9.20;;;8.30;;
9964;SDS011;5023;53.554;9.964;2023-05-07T02:02:53;9.20;;;8.40;;
9964;SDS011;5023;53.554;9.964;2023-05-07T02:07:57;9.37;;;8.57;;
9964;SDS011;5023;53.554;9.964;2023-05-07T02:12:59;9.47;;;8.60;;
9964;SDS011;5023;53.554;9.964;2023-05-07T02:18:02;9.03;;;8.13;;
9964;SDS011;5023;53.554;9.964;2023-05-07T02:23:07;10.30;;;9.30;;
9964;SDS011;5023;53.554;9.964;2023-05-07T02:28:09;10.73;;;9.70;;
9964;SDS011;5023;53.554;9.964;2023-05-07T02:33:11;11.20;;;10.07;;
9964;SDS011;5023;53.554;9.964;2023-05-07T02:38:15;10.07;;;9.07;;
9964;SDS011;5023;53.554;9.964;2023-05-07T02:43:17;9.97;;;8.97;;
9964;SDS011;5023;53.554;9.964;2023-05-07T02:48:19;10.67;;;9.20;;
9964;SDS011;5023;53.554;9.964;2023-05-07T02:53:22;10.60;;;9.50;;
9964;SDS011;5023;53.554;9.964;2023-05-07T02:58:26;9.93;;;8.93;;
9964;SDS011;5023;53.554;9.964;2023-05-07T03:03:28;11.47;;;9.77;;
9964;SDS011;5023;53.554;9.964;2023-05-07T03:08:31;10.63;;;9.53;;
9964;SDS011;5023;53.554;9.964;2023-05-07T03:13:33;11.37;;;10.17;;
9964;SDS011;5023;53.554;9.964;2023-05-07T03:18:35;10.33;;;9.33;;
9964;SDS011;5023;53.554;9.964;2023-05-07T03:23:38;11.27;;;10.03;;
9964;SDS011;5023;53.554;9.964;2023-05-07T03:28:40;11.27;;;10.17;;
9964;SDS011;5023;53.554;9.964;2023-05-07T03:33:49;10.57;;;9.47;;
9964;SDS011;5023;53.554;9.964;2023-05-07T03:38:53;12.13;;;10.83;;
9964;SDS011;5023;53.554;9.964;2023-05-07T03:43:55;11.03;;;10.03;;
9964;SDS011;5023;53.554;9.964;2023-05-07T03:48:57;11.27;;;9.47;;
9964;SDS011;5023;53.554;9.964;2023-05-07T03:54:00;11.33;;;10.20;;
9964;SDS011;5023;53.554;9.964;2023-05-07T03:59:02;10.00;;;9.10;;
9964;SDS011;5023;53.554;9.964;2023-05-07T04:04:04;10.23;;;9.33;;
9964;SDS011;5023;53.554;9.964;2023-05-07T04:09:07;11.90;;;10.40;;
9964;SDS011;5023;53.554;9.964;2023-05-07T04:14:09;9.53;;;8.70;;
9964;SDS011;5023;53.554;9.964;2023-05-07T04:19:11;10.87;;;9.67;;
9964;SDS011;5023;53.554;9.964;2023-05-07T04:24:14;10.90;;;9.90;;
9964;SDS011;5023;53.554;9.964;2023-05-07T04:29:16;10.43;;;9.30;;
9964;SDS011;5023;53.554;9.964;2023-05-07T04:34:18;10.20;;;9.30;;
9964;SDS011;5023;53.554;9.964;2023-05-07T04:39:22;10.97;;;9.87;;
9964;SDS011;5023;53.554;9.964;2023-05-07T04:44:24;10.67;;;9.57;;
9964;SDS011;5023;53.554;9.964;2023-05-07T04:49:26;10.90;;;9.80;;
9964;SDS011;5023;53.554;9.964;2023-05-07T04:54:29;10.83;;;9.73;;
9964;SDS011;5023;53.554;9.964;2023-05-07T04:59:31;10.43;;;9.53;;
9964;SDS011;5023;53.554;9.964;2023-05-07T05:04:33;9.83;;;8.83;;
9964;SDS011;5023;53.554;9.964;2023-05-07T05:09:37;11.10;;;9.33;;
9964;SDS011;5023;53.554;9.964;2023-05-07T05:14:39;9.83;;;8.90;;
9964;SDS011;5023;53.554;9.964;2023-05-07T05:19:40;9.40;;;8.50;;
9964;SDS011;5023;53.554;9.964;2023-05-07T05:24:44;9.20;;;8.40;;
9964;SDS011;5023;53.554;9.964;2023-05-07T05:29:45;10.30;;;9.20;;
9964;SDS011;5023;53.554;9.964;2023-05-07T05:34:47;10.00;;;9.00;;
9964;SDS011;5023;53.554;9.964;2023-05-07T05:39:51;9.83;;;8.93;;
9964;SDS011;5023;53.554;9.964;2023-05-07T05:44:54;10.77;;;8.97;;
9964;SDS011;5023;53.554;9.964;2023-05-07T05:49:56;9.73;;;8.80;;
9964;SDS011;5023;53.554;9.964;2023-05-07T05:54:59;9.93;;;8.87;;
9964;SDS011;5023;53.554;9.964;2023-05-07T06:00:01;9.37;;;8.47;;
9964;SDS011;5023;53.554;9.964;2023-05-07T06:05:04;10.17;;;9.17;;
9964;SDS011;5023;53.554;9.964;2023-05-07T06:10:08;10.17;;;9.07;;
9964;SDS011;5023;53.554;9.964;2023-05-07T06:15:11;10.33;;;9.33;;
9964;SDS011;5023;53.554;9.964;2023-05-07T06:20:12;9.50;;;8.60;;
9964;SDS011;5023;53.554;9.964;2023-05-07T06:25:16;9.43;;;8.60;;
9964;SDS011;5023;53.554;9.964;2023-05-07T06:30:18;9.40;;;7.83;;
9964;SDS011;5023;53.554;9.964;2023-05-07T06:35:20;11.67;;;10.03;;
9964;SDS011;5023;53.554;9.964;2023-05-07T06:40:23;9.97;;;9.07;;
9964;SDS011;5023;53.554;9.964;2023-05-07T06:45:25;9.30;;;8.40;;
9964;SDS011;5023;53.554;9.964;2023-05-07T06:50:27;9.90;;;8.90;;
9964;SDS011;5023;53.554;9.964;2023-05-07T06:55:30;10.27;;;8.97;;
9964;SDS011;5023;53.554;9.964;2023-05-07T07:00:32;8.97;;;8.17;;
9964;SDS011;5023;53.554;9.964;2023-05-07T07:05:35;10.03;;;9.10;;
9964;SDS011;5023;53.554;9.964;2023-05-07T07:10:38;9.37;;;8.37;;
9964;SDS011;5023;53.554;9.964;2023-05-07T07:15:40;8.60;;;7.80;;
9964;SDS011;5023;53.554;9.964;2023-05-07T07:20:43;9.10;;;8.20;;
9964;SDS011;5023;53.554;9.964;2023-05-07T07:25:47;8.83;;;7.97;;
9964;SDS011;5023;53.554;9.964;2023-05-07T07:30:49;8.53;;;7.73;;
9964;SDS011;5023;53.554;9.964;2023-05-07T07:35:50;9.17;;;7.80;;
9964;SDS011;5023;53.554;9.964;2023-05-07T07:40:54;8.93;;;7.77;;
9964;SDS011;5023;53.554;9.964;2023-05-07T07:45:56;8.13;;;7.43;;
9964;SDS011;5023;53.554;9.964;2023-05-07T07:50:58;9.17;;;8.37;;
9964;SDS011;5023;53.554;9.964;2023-05-07T07:56:01;8.47;;;7.67;;
9964;SDS011;5023;53.554;9.964;2023-05-07T08:01:03;9.40;;;7.33;;
9964;SDS011;5023;53.554;9.964;2023-05-07T08:06:05;7.80;;;7.10;;
9964;SDS011;5023;53.554;9.964;2023-05-07T08:11:09;8.47;;;7.63;;
9964;SDS011;5023;53.554;9.964;2023-05-07T08:16:11;7.80;;;7.00;;
9964;SDS011;5023;53.554;9.964;2023-05-07T08:21:13;7.50;;;6.80;;
9964;SDS011;5023;53.554;9.964;2023-05-07T08:26:16;10.93;;;9.87;;
9964;SDS011;5023;53.554;9.964;2023-05-07T08:31:18;8.93;;;8.13;;
9964;SDS011;5023;53.554;9.964;2023-05-07T08:36:20;7.33;;;6.63;;
9964;SDS011;5023;53.554;9.964;2023-05-07T08:41:23;11.83;;;9.73;;
9964;SDS011;5023;53.554;9.964;2023-05-07T08:46:25;7.93;;;7.13;;
9964;SDS011;5023;53.554;9.964;2023-05-07T08:51:33;7.27;;;6.57;;
9964;SDS011;5023;53.554;9.964;2023-05-07T08:56:36;10.47;;;9.50;;
9964;SDS011;5023;53.554;9.964;2023-05-07T09:01:39;14.13;;;10.83;;
9964;SDS011;5023;53.554;9.964;2023-05-07T09:06:41;9.40;;;8.40;;
9964;SDS011;5023;53.554;9.964;2023-05-07T09:11:45;7.97;;;7.27;;
9964;SDS011;5023;53.554;9.964;2023-05-07T09:16:46;11.10;;;9.27;;
9964;SDS011;5023;53.554;9.964;2023-05-07T09:21:48;8.23;;;7.40;;
9964;SDS011;5023;53.554;9.964;2023-05-07T09:26:52;7.77;;;6.80;;
9964;SDS011;5023;53.554;9.964;2023-05-07T09:31:54;6.70;;;6.10;;
9964;SDS011;5023;53.554;9.964;2023-05-07T09:36:56;10.07;;;9.10;;
9964;SDS011;5023;53.554;9.964;2023-05-07T09:42:01;7.97;;;7.27;;
9964;SDS011;5023;53.554;9.964;2023-05-07T09:47:04;8.23;;;7.20;;
9964;SDS011;5023;53.554;9.964;2023-05-07T09:52:07;7.10;;;6.50;;
9964;SDS011;5023;53.554;9.964;2023-05-07T09:57:11;7.80;;;7.00;;
9964;SDS011;5023;53.554;9.964;2023-05-07T10:02:14;8.10;;;7.40;;
9964;SDS011;5023;53.554;9.964;2023-05-07T10:07:19;6.87;;;6.27;;
9964;SDS011;5023;53.554;9.964;2023-05-07T10:12:23;8.47;;;7.67;;
9964;SDS011;5023;53.554;9.964;2023-05-07T10:17:25;11.20;;;10.10;;
9964;SDS011;5023;53.554;9.964;2023-05-07T10:22:27;12.53;;;11.10;;
9964;SDS011;5023;53.554;9.964;2023-05-07T10:27:35;7.93;;;7.13;;
9964;SDS011;5023;53.554;9.964;2023-05-07T10:32:39;9.47;;;8.53;;
9964;SDS011;5023;53.554;9.964;2023-05-07T10:37:43;7.43;;;6.73;;
9964;SDS011;5023;53.554;9.964;2023-05-07T10:42:57;7.17;;;6.57;;
9964;SDS011;5023;53.554;9.964;2023-05-07T10:48:07;9.00;;;8.10;;
9964;SDS011;5023;53.554;9.964;2023-05-07T10:53:23;8.67;;;7.80;;
9964;SDS011;5023;53.554;9.964;2023-05-07T10:58:28;9.23;;;8.10;;
9964;SDS011;5023;53.554;9.964;2023-05-07T11:03:33;7.60;;;6.90;;
9964;SDS011;5023;53.554;9.964;2023-05-07T11:14:00;8.40;;;7.60;;
9964;SDS011;5023;53.554;9.964;2023-05-07T11:19:01;6.67;;;6.13;;
9964;SDS011;5023;53.554;9.964;2023-05-07T11:24:04;8.50;;;7.38;;
9964;SDS011;5023;53.554;9.964;2023-05-07T11:29:11;7.88;;;7.15;;
9964;SDS011;5023;53.554;9.964;2023-05-07T11:34:14;7.75;;;7.05;;
9964;SDS011;5023;53.554;9.964;2023-05-07T11:39:28;6.82;;;6.20;;
9964;SDS011;5023;53.554;9.964;2023-05-07T11:44:43;9.02;;;8.23;;
9964;SDS011;5023;53.554;9.964;2023-05-07T11:49:47;6.90;;;6.05;;
9964;SDS011;5023;53.554;9.964;2023-05-07T11:54:50;7.85;;;7.05;;
9964;SDS011;5023;53.554;9.964;2023-05-07T11:59:54;6.82;;;6.13;;
9964;SDS011;5023;53.554;9.964;2023-05-07T12:04:56;5.68;;;5.18;;
9964;SDS011;5023;53.554;9.964;2023-05-07T12:09:57;6.00;;;5.50;;
9964;SDS011;5023;53.554;9.964;2023-05-07T12:15:01;5.90;;;5.40;;
9964;SDS011;5023;53.554;9.964;2023-05-07T12:20:03;5.72;;;5.22;;
9964;SDS011;5023;53.554;9.964;2023-05-07T12:25:06;5.05;;;4.65;;
9964;SDS011;5023;53.554;9.964;2023-05-07T12:30:11;6.13;;;5.53;;
9964;SDS011;5023;53.554;9.964;2023-05-07T12:35:14;4.95;;;4.57;;
9964;SDS011;5023;53.554;9.964;2023-05-07T12:40:16;6.00;;;4.38;;
9964;SDS011;5023;53.554;9.964;2023-05-07T12:45:19;5.00;;;4.60;;
9964;SDS011;5023;53.554;9.964;2023-05-07T12:50:22;5.68;;;5.18;;
9964;SDS011;5023;53.554;9.964;2023-05-07T12:55:24;3.90;;;3.60;;
9964;SDS011;5023;53.554;9.964;2023-05-07T13:00:34;5.13;;;4.63;;
9964;SDS011;5023;53.554;9.964;2023-05-07T13:05:37;5.80;;;4.80;;
9964;SDS011;5023;53.554;9.964;2023-05-07T13:10:40;3.90;;;3.60;;
9964;SDS011;5023;53.554;9.964;2023-05-07T13:15:43;4.38;;;4.07;;
9964;SDS011;5023;53.554;9.964;2023-05-07T13:20:45;4.88;;;4.57;;
9964;SDS011;5023;53.554;9.964;2023-05-07T13:25:47;4.15;;;3.78;;
9964;SDS011;5023;53.554;9.964;2023-05-07T13:30:52;6.72;;;6.13;;
9964;SDS011;5023;53.554;9.964;2023-05-07T13:35:54;14.30;;;5.38;;
9964;SDS011;5023;53.554;9.964;2023-05-07T13:40:57;3.72;;;3.50;;
9964;SDS011;5023;53.554;9.964;2023-05-07T13:46:02;4.50;;;3.72;;
9964;SDS011;5023;53.554;9.964;2023-05-07T13:51:04;3.45;;;3.25;;
9964;SDS011;5023;53.554;9.964;2023-05-07T13:56:06;4.20;;;3.70;;
9964;SDS011;5023;53.554;9.964;2023-05-07T14:01:09;4.15;;;3.80;;
9964;SDS011;5023;53.554;9.964;2023-05-07T14:06:11;5.45;;;4.95;;
9964;SDS011;5023;53.554;9.964;2023-05-07T14:11:13;3.25;;;3.05;;
9964;SDS011;5023;53.554;9.964;2023-05-07T14:16:16;3.20;;;3.00;;
9964;SDS011;5023;53.554;9.964;2023-05-07T14:21:18;4.00;;;3.70;;
9964;SDS011;5023;53.554;9.964;2023-05-07T14:26:20;4.32;;;4.03;;
9964;SDS011;5023;53.554;9.964;2023-05-07T14:31:24;3.45;;;3.03;;
9964;SDS011;5023;53.554;9.964;2023-05-07T14:36:26;5.43;;;2.92;;
9964;SDS011;5023;53.554;9.964;2023-05-07T14:41:30;3.22;;;2.95;;
9964;SDS011;5023;53.554;9.964;2023-05-07T14:46:34;9.57;;;8.63;;
9964;SDS011;5023;53.554;9.964;2023-05-07T14:51:36;4.80;;;4.38;;
9964;SDS011;5023;53.554;9.964;2023-05-07T14:56:38;3.20;;;3.00;;
9964;SDS011;5023;53.554;9.964;2023-05-07T15:01:42;3.58;;;3.30;;
9964;SDS011;5023;53.554;9.964;2023-05-07T15:06:45;5.60;;;5.00;;
9964;SDS011;5023;53.554;9.964;2023-05-07T15:11:47;3.13;;;2.90;;
9964;SDS011;5023;53.554;9.964;2023-05-07T15:16:50;2.72;;;2.53;;
9964;SDS011;5023;53.554;9.964;2023-05-07T15:21:52;3.67;;;3.47;;
9964;SDS011;5023;53.554;9.964;2023-05-07T15:26:54;2.95;;;2.63;;
9964;SDS011;5023;53.554;9.964;2023-05-07T15:31:58;3.25;;;2.90;;
9964;SDS011;5023;53.554;9.964;2023-05-07T15:36:59;3.35;;;2.90;;
9964;SDS011;5023;53.554;9.964;2023-05-07T15:42:01;2.83;;;2.63;;
9964;SDS011;5023;53.554;9.964;2023-05-07T15:47:05;3.20;;;3.00;;
9964;SDS011;5023;53.554;9.964;2023-05-07T15:52:08;5.10;;;4.70;;
9964;SDS011;5023;53.554;9.964;2023-05-07T15:57:11;8.30;;;7.18;;
9964;SDS011;5023;53.554;9.964;2023-05-07T16:02:14;8.63;;;7.75;;
9964;SDS011;5023;53.554;9.964;2023-05-07T16:07:16;3.50;;;3.20;;
9964;SDS011;5023;53.554;9.964;2023-05-07T16:12:18;4.22;;;3.90;;
9964;SDS011;5023;53.554;9.964;2023-05-07T16:17:23;9.50;;;8.60;;
9964;SDS011;5023;53.554;9.964;2023-05-07T16:22:25;4.43;;;4.03;;
9964;SDS011;5023;53.554;9.964;2023-05-07T16:27:28;9.40;;;7.57;;
9964;SDS011;5023;53.554;9.964;2023-05-07T16:32:31;5.55;;;4.18;;
9964;SDS011;5023;53.554;9.964;2023-05-07T16:37:33;3.22;;;3.03;;
9964;SDS011;5023;53.554;9.964;2023-05-07T16:42:35;2.97;;;2.80;;
9964;SDS011;5023;53.554;9.964;2023-05-07T16:47:39;3.92;;;3.25;;
9964;SDS011;5023;53.554;9.964;2023-05-07T16:52:41;3.78;;;3.47;;
9964;SDS011;5023;53.554;9.964;2023-05-07T16:57:43;9.60;;;8.45;;
9964;SDS011;5023;53.554;9.964;2023-05-07T17:02:46;3.50;;;3.20;;
9964;SDS011;5023;53.554;9.964;2023-05-07T17:07:48;5.68;;;5.18;;
9964;SDS011;5023;53.554;9.964;2023-05-07T17:12:50;3.28;;;3.03;;
9964;SDS011;5023;53.554;9.964;2023-05-07T17:17:53;6.25;;;5.65;;
9964;SDS011;5023;53.554;9.964;2023-05-07T17:22:55;3.17;;;2.97;;
9964;SDS011;5023;53.554;9.964;2023-05-07T17:27:57;4.72;;;4.32;;
9964;SDS011;5023;53.554;9.964;2023-05-07T17:33:00;4.90;;;4.38;;
9964;SDS011;5023;53.554;9.964;2023-05-07T17:38:02;4.25;;;3.95;;
9964;SDS011;5023;53.554;9.964;2023-05-07T17:43:04;4.18;;;3.88;;
9964;SDS011;5023;53.554;9.964;2023-05-07T17:48:08;5.45;;;4.82;;
9964;SDS011;5023;53.554;9.964;2023-05-07T17:53:10;4.72;;;4.22;;
9964;SDS011;5023;53.554;9.964;2023-05-07T17:58:12;12.07;;;10.13;;
9964;SDS011;5023;53.554;9.964;2023-05-07T18:03:15;4.85;;;4.45;;
9964;SDS011;5023;53.554;9.964;2023-05-07T18:08:18;3.53;;;3.25;;
9964;SDS011;5023;53.554;9.964;2023-05-07T18:13:21;3.63;;;3.33;;
9964;SDS011;5023;53.554;9.964;2023-05-07T18:18:24;5.28;;;2.85;;
9964;SDS011;5023;53.554;9.964;2023-05-07T18:23:30;14.73;;;9.65;;
9964;SDS011;5023;53.554;9.964;2023-05-07T18:28:34;5.72;;;5.22;;
9964;SDS011;5023;53.554;9.964;2023-05-07T18:33:37;4.13;;;3.42;;
9964;SDS011;5023;53.554;9.964;2023-05-07T18:38:39;3.47;;;3.17;;
9964;SDS011;5023;53.554;9.964;2023-05-07T18:43:42;6.28;;;4.93;;
9964;SDS011;5023;53.554;9.964;2023-05-07T18:48:45;3.22;;;2.80;;
9964;SDS011;5023;53.554;9.964;2023-05-07T18:53:47;3.28;;;3.00;;
9964;SDS011;5023;53.554;9.964;2023-05-07T18:58:49;3.17;;;2.90;;
9964;SDS011;5023;53.554;9.964;2023-05-07T19:03:52;3.40;;;3.10;;
9964;SDS011;5023;53.554;9.964;2023-05-07T19:08:54;8.98;;;7.78;;
9964;SDS011;5023;53.554;9.964;2023-05-07T19:13:56;7.50;;;6.72;;
9964;SDS011;5023;53.554;9.964;2023-05-07T19:18:59;3.80;;;3.50;;
9964;SDS011;5023;53.554;9.964;2023-05-07T19:24:02;4.60;;;3.70;;
9964;SDS011;5023;53.554;9.964;2023-05-07T19:29:04;4.35;;;3.67;;
9964;SDS011;5023;53.554;9.964;2023-05-07T19:34:07;5.28;;;4.38;;
9964;SDS011;5023;53.554;9.964;2023-05-07T19:39:09;3.75;;;3.45;;
9964;SDS011;5023;53.554;9.964;2023-05-07T19:44:11;3.63;;;3.35;;
9964;SDS011;5023;53.554;9.964;2023-05-07T19:49:14;5.05;;;4.45;;
9964;SDS011;5023;53.554;9.964;2023-05-07T19:54:17;6.50;;;6.00;;
9964;SDS011;5023;53.554;9.964;2023-05-07T19:59:19;6.30;;;5.70;;
9964;SDS011;5023;53.554;9.964;2023-05-07T20:04:23;6.95;;;6.03;;
9964;SDS011;5023;53.554;9.964;2023-05-07T20:09:29;8.93;;;8.13;;
9964;SDS011;5023;53.554;9.964;2023-05-07T20:14:31;9.18;;;8.20;;
9964;SDS011;5023;53.554;9.964;2023-05-07T20:19:35;6.97;;;6.28;;
9964;SDS011;5023;53.554;9.964;2023-05-07T20:24:37;5.60;;;4.70;;
9964;SDS011;5023;53.554;9.964;2023-05-07T20:29:39;6.95;;;4.85;;
9964;SDS011;5023;53.554;9.964;2023-05-07T20:34:43;6.47;;;4.85;;
9964;SDS011;5023;53.554;9.964;2023-05-07T20:39:45;3.47;;;2.70;;
9964;SDS011;5023;53.554;9.964;2023-05-07T20:44:47;7.50;;;5.75;;
9964;SDS011;5023;53.554;9.964;2023-05-07T20:49:51;4.30;;;3.90;;
9964;SDS011;5023;53.554;9.964;2023-05-07T20:54:54;8.15;;;7.32;;
9964;SDS011;5023;53.554;9.964;2023-05-07T20:59:56;5.95;;;3.88;;
9964;SDS011;5023;53.554;9.964;2023-05-07T21:04:59;4.30;;;3.95;;
9964;SDS011;5023;53.554;9.964;2023-05-07T21:10:01;5.30;;;4.80;;
9964;SDS011;5023;53.554;9.964;2023-05-07T21:15:04;7.68;;;5.10;;
9964;SDS011;5023;53.554;9.964;2023-05-07T21:20:09;5.68;;;3.95;;
9964;SDS011;5023;53.554;9.964;2023-05-07T21:25:11;7.47;;;4.57;;
9964;SDS011;5023;53.554;9.964;2023-05-07T21:30:13;9.13;;;6.78;;
9964;SDS011;5023;53.554;9.964;2023-05-07T21:35:17;7.93;;;4.90;;
9964;SDS011;5023;53.554;9.964;2023-05-07T21:40:19;10.98;;;7.63;;
9964;SDS011;5023;53.554;9.964;2023-05-07T21:45:21;3.95;;;3.65;;
9964;SDS011;5023;53.554;9.964;2023-05-07T21:50:24;8.60;;;6.97;;
9964;SDS011;5023;53.554;9.964;2023-05-07T21:55:26;7.07;;;4.97;;
9964;SDS011;5023;53.554;9.964;2023-05-07T22:00:28;4.88;;;4.47;;
9964;SDS011;5023;53.554;9.964;2023-05-07T22:05:31;3.72;;;3.42;;
9964;SDS011;5023;53.554;9.964;2023-05-07T22:10:33;3.80;;;3.33;;
9964;SDS011;5023;53.554;9.964;2023-05-07T22:15:36;3.17;;;2.97;;
9964;SDS011;5023;53.554;9.964;2023-05-07T22:20:39;15.43;;;8.85;;
9964;SDS011;5023;53.554;9.964;2023-05-07T22:25:41;4.80;;;4.18;;
9964;SDS011;5023;53.554;9.964;2023-05-07T22:30:43;4.78;;;4.40;;
9964;SDS011;5023;53.554;9.964;2023-05-07T22:35:46;4.13;;;3.72;;
9964;SDS011;5023;53.554;9.964;2023-05-07T22:40:48;6.93;;;5.35;;
9964;SDS011;5023;53.554;9.964;2023-05-07T22:45:56;4.95;;;4.47;;
9964;SDS011;5023;53.554;9.964;2023-05-07T22:51:00;8.27;;;5.32;;
9964;SDS011;5023;53.554;9.964;2023-05-07T22:56:03;4.82;;;3.72;;
9964;SDS011;5023;53.554;9.964;2023-05-07T23:01:10;4.03;;;3.70;;
9964;SDS011;5023;53.554;9.964;2023-05-07T23:06:14;3.80;;;3.55;;
9964;SDS011;5023;53.554;9.964;2023-05-07T23:11:16;3.80;;;3.60;;
9964;SDS011;5023;53.554;9.964;2023-05-07T23:16:18;4.10;;;3.80;;
9964;SDS011;5023;53.554;9.964;2023-05-07T23:21:21;11.95;;;5.85;;
9964;SDS011;5023;53.554;9.964;2023-05-07T23:26:25;4.32;;;3.50;;
9964;SDS011;5023;53.554;9.964;2023-05-07T23:31:27;4.40;;;4.10;;
9964;SDS011;5023;53.554;9.964;2023-05-07T23:36:31;4.50;;;4.20;;
9964;SDS011;5023;53.554;9.964;2023-05-07T23:41:33;4.00;;;3.70;;
9964;SDS011;5023;53.554;9.964;2023-05-07T23:46:35;4.23;;;3.93;;
9964;SDS011;5023;53.554;9.964;2023-05-07T23:51:38;4.33;;;3.93;;
9964;SDS011;5023;53.554;9.964;2023-05-07T23:56:40;4.17;;;3.80;;
